aviador You're here:

KMHS Decoded Metar

MOUNT SHASTA in CA, USA
Report Time2017-06-25 05:56:00
UTC Time2017-06-25 06:53:23
Flight Rules vfr VFR
WindCalm
Visibility9999 m
Phenomena:N/A
Clouds:N/A
Expected CloudBase > 3,600 ft AGL from Temp-Dew spread
CeilingNone
Temp18°C (ISA +10)
Dew Point09°C (56% RH)
AAT17.8°C
QNH1018 hPa
Density Alt4,701 ft
Elevation3,537 ft
Report Wrong Elevation
Raw Report
METAR KMHS 250556Z AUTO 00000KT 10SM CLR 18/09 A3006 RMK AO2 SLP158
T01830094 10344 20183 53013=

Extra information for KMHS:More info

Metar Taf Metar & Taf Last 4 Metars F.Rules Stats Wind Profile Meteogram Temp Stats Airport Information Weather charts Add Link Nearby VenuesMetar ALERT Operation Metar Decoded Social comments

AIRNAV info for KMHS